sensor_id;sensor_type;location;lat;lon;timestamp;temperature;humidity
52565;DHT22;38460;53.106;7.004;2023-05-14T00:00:55;12.00;99.90
52565;DHT22;38460;53.106;7.004;2023-05-14T00:03:21;12.00;99.90
52565;DHT22;38460;53.106;7.004;2023-05-14T00:05:47;12.00;99.90
52565;DHT22;38460;53.106;7.004;2023-05-14T00:08:13;12.00;99.90
52565;DHT22;38460;53.106;7.004;2023-05-14T00:10:39;11.90;99.90
52565;DHT22;38460;53.106;7.004;2023-05-14T00:13:04;11.90;99.90
52565;DHT22;38460;53.106;7.004;2023-05-14T00:15:30;11.90;99.90
52565;DHT22;38460;53.106;7.004;2023-05-14T00:17:56;11.90;99.90
52565;DHT22;38460;53.106;7.004;2023-05-14T00:20:21;11.80;99.90
52565;DHT22;38460;53.106;7.004;2023-05-14T00:22:47;11.80;99.90
52565;DHT22;38460;53.106;7.004;2023-05-14T00:25:13;11.80;99.90
52565;DHT22;38460;53.106;7.004;2023-05-14T00:27:39;11.80;99.90
52565;DHT22;38460;53.106;7.004;2023-05-14T00:30:05;11.80;99.90
52565;DHT22;38460;53.106;7.004;2023-05-14T00:32:31;11.80;99.90
52565;DHT22;38460;53.106;7.004;2023-05-14T00:34:57;11.80;99.90
52565;DHT22;38460;53.106;7.004;2023-05-14T00:37:23;11.80;99.90
52565;DHT22;38460;53.106;7.004;2023-05-14T00:39:49;11.80;99.90
52565;DHT22;38460;53.106;7.004;2023-05-14T00:42:14;11.70;99.90
52565;DHT22;38460;53.106;7.004;2023-05-14T00:44:40;11.70;99.90
52565;DHT22;38460;53.106;7.004;2023-05-14T00:47:06;11.80;99.90
52565;DHT22;38460;53.106;7.004;2023-05-14T00:49:33;11.70;99.90
52565;DHT22;38460;53.106;7.004;2023-05-14T00:51:59;11.70;99.90
52565;DHT22;38460;53.106;7.004;2023-05-14T00:54:25;11.70;99.90
52565;DHT22;38460;53.106;7.004;2023-05-14T00:56:53;11.70;99.90
52565;DHT22;38460;53.106;7.004;2023-05-14T00:59:19;11.60;99.90
52565;DHT22;38460;53.106;7.004;2023-05-14T01:01:45;11.60;99.90
52565;DHT22;38460;53.106;7.004;2023-05-14T01:04:11;11.60;99.90
52565;DHT22;38460;53.106;7.004;2023-05-14T01:15:03;11.50;99.90
52565;DHT22;38460;53.106;7.004;2023-05-14T01:17:32;11.50;99.90
52565;DHT22;38460;53.106;7.004;2023-05-14T01:19:58;11.50;99.90
52565;DHT22;38460;53.106;7.004;2023-05-14T01:22:25;11.50;99.90
52565;DHT22;38460;53.106;7.004;2023-05-14T01:24:50;11.50;99.90
52565;DHT22;38460;53.106;7.004;2023-05-14T01:27:25;11.50;99.90
52565;DHT22;38460;53.106;7.004;2023-05-14T01:30:18;11.40;99.90
52565;DHT22;38460;53.106;7.004;2023-05-14T01:32:47;11.40;99.90
52565;DHT22;38460;53.106;7.004;2023-05-14T01:35:17;11.40;99.90
52565;DHT22;38460;53.106;7.004;2023-05-14T01:37:44;11.40;99.90
52565;DHT22;38460;53.106;7.004;2023-05-14T01:40:10;11.40;99.90
52565;DHT22;38460;53.106;7.004;2023-05-14T01:42:37;11.30;99.90
52565;DHT22;38460;53.106;7.004;2023-05-14T01:45:03;11.30;99.90
52565;DHT22;38460;53.106;7.004;2023-05-14T01:47:29;11.30;99.90
52565;DHT22;38460;53.106;7.004;2023-05-14T01:49:55;11.30;99.90
52565;DHT22;38460;53.106;7.004;2023-05-14T01:52:21;11.30;99.90
52565;DHT22;38460;53.106;7.004;2023-05-14T01:54:47;11.30;99.90
52565;DHT22;38460;53.106;7.004;2023-05-14T01:57:13;11.30;99.90
52565;DHT22;38460;53.106;7.004;2023-05-14T01:59:38;11.20;99.90
52565;DHT22;38460;53.106;7.004;2023-05-14T02:02:04;11.20;99.90
52565;DHT22;38460;53.106;7.004;2023-05-14T02:04:30;11.20;99.90
52565;DHT22;38460;53.106;7.004;2023-05-14T02:06:56;11.20;99.90
52565;DHT22;38460;53.106;7.004;2023-05-14T02:09:21;11.10;99.90
52565;DHT22;38460;53.106;7.004;2023-05-14T02:11:47;11.10;99.90
52565;DHT22;38460;53.106;7.004;2023-05-14T02:14:13;11.10;99.90
52565;DHT22;38460;53.106;7.004;2023-05-14T02:16:39;11.10;99.90
52565;DHT22;38460;53.106;7.004;2023-05-14T02:19:05;11.10;99.90
52565;DHT22;38460;53.106;7.004;2023-05-14T02:21:31;11.10;99.90
52565;DHT22;38460;53.106;7.004;2023-05-14T02:23:57;11.10;99.90
52565;DHT22;38460;53.106;7.004;2023-05-14T02:26:23;11.00;99.90
52565;DHT22;38460;53.106;7.004;2023-05-14T02:28:49;11.10;99.90
52565;DHT22;38460;53.106;7.004;2023-05-14T02:31:14;11.00;99.90
52565;DHT22;38460;53.106;7.004;2023-05-14T02:33:43;11.00;99.90
52565;DHT22;38460;53.106;7.004;2023-05-14T02:36:09;10.90;99.90
52565;DHT22;38460;53.106;7.004;2023-05-14T02:38:35;10.90;99.90
52565;DHT22;38460;53.106;7.004;2023-05-14T02:41:00;10.90;99.90
52565;DHT22;38460;53.106;7.004;2023-05-14T02:43:26;10.90;99.90
52565;DHT22;38460;53.106;7.004;2023-05-14T02:45:52;10.90;99.90
52565;DHT22;38460;53.106;7.004;2023-05-14T02:48:17;10.90;99.90
52565;DHT22;38460;53.106;7.004;2023-05-14T02:50:43;10.90;99.90
52565;DHT22;38460;53.106;7.004;2023-05-14T02:53:09;10.90;99.90
52565;DHT22;38460;53.106;7.004;2023-05-14T02:55:35;10.80;99.90
52565;DHT22;38460;53.106;7.004;2023-05-14T02:58:00;10.70;99.90
52565;DHT22;38460;53.106;7.004;2023-05-14T03:00:26;10.70;99.90
52565;DHT22;38460;53.106;7.004;2023-05-14T03:02:52;10.60;99.90
52565;DHT22;38460;53.106;7.004;2023-05-14T03:05:18;10.60;99.90
52565;DHT22;38460;53.106;7.004;2023-05-14T03:07:44;10.60;99.90
52565;DHT22;38460;53.106;7.004;2023-05-14T03:10:10;10.60;99.90
52565;DHT22;38460;53.106;7.004;2023-05-14T03:12:36;10.60;99.90
52565;DHT22;38460;53.106;7.004;2023-05-14T03:15:02;10.60;99.90
52565;DHT22;38460;53.106;7.004;2023-05-14T03:17:28;10.50;99.90
52565;DHT22;38460;53.106;7.004;2023-05-14T03:19:54;10.60;99.90
52565;DHT22;38460;53.106;7.004;2023-05-14T03:22:19;10.60;99.90
52565;DHT22;38460;53.106;7.004;2023-05-14T03:24:45;10.50;99.90
52565;DHT22;38460;53.106;7.004;2023-05-14T03:27:11;10.50;99.90
52565;DHT22;38460;53.106;7.004;2023-05-14T03:29:36;10.60;99.90
52565;DHT22;38460;53.106;7.004;2023-05-14T03:32:02;10.50;99.90
52565;DHT22;38460;53.106;7.004;2023-05-14T03:34:28;10.60;99.90
52565;DHT22;38460;53.106;7.004;2023-05-14T03:36:54;10.50;99.90
52565;DHT22;38460;53.106;7.004;2023-05-14T03:39:19;10.50;99.90
52565;DHT22;38460;53.106;7.004;2023-05-14T03:41:46;10.50;99.90
52565;DHT22;38460;53.106;7.004;2023-05-14T03:44:12;10.50;99.90
52565;DHT22;38460;53.106;7.004;2023-05-14T03:46:38;10.50;99.90
52565;DHT22;38460;53.106;7.004;2023-05-14T03:49:05;10.40;99.90
52565;DHT22;38460;53.106;7.004;2023-05-14T03:51:31;10.40;99.90
52565;DHT22;38460;53.106;7.004;2023-05-14T03:53:57;10.40;99.90
52565;DHT22;38460;53.106;7.004;2023-05-14T03:56:23;10.40;99.90
52565;DHT22;38460;53.106;7.004;2023-05-14T03:58:49;10.40;99.90
52565;DHT22;38460;53.106;7.004;2023-05-14T04:01:15;10.40;99.90
52565;DHT22;38460;53.106;7.004;2023-05-14T04:03:40;10.40;99.90
52565;DHT22;38460;53.106;7.004;2023-05-14T04:06:06;10.30;99.90
52565;DHT22;38460;53.106;7.004;2023-05-14T04:08:32;10.30;99.90
52565;DHT22;38460;53.106;7.004;2023-05-14T04:10:58;10.40;99.90
52565;DHT22;38460;53.106;7.004;2023-05-14T04:13:23;10.30;99.90
52565;DHT22;38460;53.106;7.004;2023-05-14T04:15:49;10.40;99.90
52565;DHT22;38460;53.106;7.004;2023-05-14T04:18:15;10.40;99.90
52565;DHT22;38460;53.106;7.004;2023-05-14T04:20:41;10.40;99.90
52565;DHT22;38460;53.106;7.004;2023-05-14T04:23:07;10.40;99.90
52565;DHT22;38460;53.106;7.004;2023-05-14T04:25:33;10.40;99.90
52565;DHT22;38460;53.106;7.004;2023-05-14T04:27:58;10.40;99.90
52565;DHT22;38460;53.106;7.004;2023-05-14T04:30:24;10.40;99.90
52565;DHT22;38460;53.106;7.004;2023-05-14T04:32:50;10.30;99.90
52565;DHT22;38460;53.106;7.004;2023-05-14T04:35:16;10.30;99.90
52565;DHT22;38460;53.106;7.004;2023-05-14T04:37:42;10.30;99.90
52565;DHT22;38460;53.106;7.004;2023-05-14T04:40:08;10.30;99.90
52565;DHT22;38460;53.106;7.004;2023-05-14T04:42:36;10.30;99.90
52565;DHT22;38460;53.106;7.004;2023-05-14T04:45:02;10.30;99.90
52565;DHT22;38460;53.106;7.004;2023-05-14T04:47:30;10.30;99.90
52565;DHT22;38460;53.106;7.004;2023-05-14T04:49:56;10.40;99.90
52565;DHT22;38460;53.106;7.004;2023-05-14T04:52:22;10.40;99.90
52565;DHT22;38460;53.106;7.004;2023-05-14T04:54:48;10.40;99.90
52565;DHT22;38460;53.106;7.004;2023-05-14T04:57:15;10.50;99.90
52565;DHT22;38460;53.106;7.004;2023-05-14T04:59:41;10.50;99.90
52565;DHT22;38460;53.106;7.004;2023-05-14T05:02:07;10.60;99.90
52565;DHT22;38460;53.106;7.004;2023-05-14T05:04:33;10.60;99.90
52565;DHT22;38460;53.106;7.004;2023-05-14T05:06:58;10.70;99.90
52565;DHT22;38460;53.106;7.004;2023-05-14T05:09:24;10.70;99.90
52565;DHT22;38460;53.106;7.004;2023-05-14T05:11:50;10.80;99.90
52565;DHT22;38460;53.106;7.004;2023-05-14T05:14:16;10.80;99.90
52565;DHT22;38460;53.106;7.004;2023-05-14T05:16:42;10.80;99.90
52565;DHT22;38460;53.106;7.004;2023-05-14T05:19:08;10.80;99.90
52565;DHT22;38460;53.106;7.004;2023-05-14T05:21:34;10.90;99.90
52565;DHT22;38460;53.106;7.004;2023-05-14T05:23:59;11.00;99.90
52565;DHT22;38460;53.106;7.004;2023-05-14T05:26:25;11.00;99.90
52565;DHT22;38460;53.106;7.004;2023-05-14T05:28:51;11.10;99.90
52565;DHT22;38460;53.106;7.004;2023-05-14T05:31:17;11.10;99.90
52565;DHT22;38460;53.106;7.004;2023-05-14T05:33:43;11.20;99.90
52565;DHT22;38460;53.106;7.004;2023-05-14T05:36:09;11.20;99.90
52565;DHT22;38460;53.106;7.004;2023-05-14T05:38:34;11.20;99.90
52565;DHT22;38460;53.106;7.004;2023-05-14T05:41:00;11.30;99.90
52565;DHT22;38460;53.106;7.004;2023-05-14T05:43:26;11.30;99.90
52565;DHT22;38460;53.106;7.004;2023-05-14T05:45:53;11.40;99.90
52565;DHT22;38460;53.106;7.004;2023-05-14T05:48:19;11.40;99.90
52565;DHT22;38460;53.106;7.004;2023-05-14T05:50:48;11.40;99.90
52565;DHT22;38460;53.106;7.004;2023-05-14T05:53:14;11.50;99.90
52565;DHT22;38460;53.106;7.004;2023-05-14T05:55:46;11.50;99.90
52565;DHT22;38460;53.106;7.004;2023-05-14T05:58:12;11.60;99.90
52565;DHT22;38460;53.106;7.004;2023-05-14T06:00:40;11.60;99.90
52565;DHT22;38460;53.106;7.004;2023-05-14T06:03:06;11.60;99.90
52565;DHT22;38460;53.106;7.004;2023-05-14T06:05:31;11.70;99.90
52565;DHT22;38460;53.106;7.004;2023-05-14T06:07:57;11.70;99.90
52565;DHT22;38460;53.106;7.004;2023-05-14T06:10:23;11.70;99.90
52565;DHT22;38460;53.106;7.004;2023-05-14T06:12:48;11.80;99.90
52565;DHT22;38460;53.106;7.004;2023-05-14T06:15:14;11.80;99.90
52565;DHT22;38460;53.106;7.004;2023-05-14T06:17:40;11.80;99.90
52565;DHT22;38460;53.106;7.004;2023-05-14T06:20:06;11.80;99.90
52565;DHT22;38460;53.106;7.004;2023-05-14T06:22:33;11.90;99.90
52565;DHT22;38460;53.106;7.004;2023-05-14T06:24:59;11.90;99.90
52565;DHT22;38460;53.106;7.004;2023-05-14T06:27:25;12.00;99.90
52565;DHT22;38460;53.106;7.004;2023-05-14T06:29:50;12.00;99.90
52565;DHT22;38460;53.106;7.004;2023-05-14T06:32:16;12.10;99.90
52565;DHT22;38460;53.106;7.004;2023-05-14T06:34:42;12.10;99.90
52565;DHT22;38460;53.106;7.004;2023-05-14T06:37:09;12.20;99.90
52565;DHT22;38460;53.106;7.004;2023-05-14T06:39:35;12.20;99.90
52565;DHT22;38460;53.106;7.004;2023-05-14T06:42:01;12.30;99.90
52565;DHT22;38460;53.106;7.004;2023-05-14T06:44:27;12.40;99.90
52565;DHT22;38460;53.106;7.004;2023-05-14T06:46:53;12.50;99.90
52565;DHT22;38460;53.106;7.004;2023-05-14T06:49:19;12.60;99.90
52565;DHT22;38460;53.106;7.004;2023-05-14T06:51:46;12.60;99.90
52565;DHT22;38460;53.106;7.004;2023-05-14T06:54:12;12.80;99.90
52565;DHT22;38460;53.106;7.004;2023-05-14T06:56:38;12.90;99.90
52565;DHT22;38460;53.106;7.004;2023-05-14T06:59:03;13.00;99.90
52565;DHT22;38460;53.106;7.004;2023-05-14T07:01:29;13.10;99.90
52565;DHT22;38460;53.106;7.004;2023-05-14T07:03:55;13.20;99.90
52565;DHT22;38460;53.106;7.004;2023-05-14T07:06:21;13.20;99.90
52565;DHT22;38460;53.106;7.004;2023-05-14T07:08:47;13.30;99.90
52565;DHT22;38460;53.106;7.004;2023-05-14T07:11:13;13.40;99.90
52565;DHT22;38460;53.106;7.004;2023-05-14T07:13:39;13.50;99.90
52565;DHT22;38460;53.106;7.004;2023-05-14T07:16:07;13.60;99.90
52565;DHT22;38460;53.106;7.004;2023-05-14T07:18:36;13.70;99.90
52565;DHT22;38460;53.106;7.004;2023-05-14T07:21:02;13.80;99.90
52565;DHT22;38460;53.106;7.004;2023-05-14T07:23:34;13.90;99.90
52565;DHT22;38460;53.106;7.004;2023-05-14T07:26:02;13.90;99.90
52565;DHT22;38460;53.106;7.004;2023-05-14T07:28:27;14.00;99.90
52565;DHT22;38460;53.106;7.004;2023-05-14T07:30:53;14.10;99.90
52565;DHT22;38460;53.106;7.004;2023-05-14T07:33:19;14.10;99.90
52565;DHT22;38460;53.106;7.004;2023-05-14T07:35:45;14.20;99.90
52565;DHT22;38460;53.106;7.004;2023-05-14T07:38:11;14.30;99.90
52565;DHT22;38460;53.106;7.004;2023-05-14T07:40:36;14.30;99.90
52565;DHT22;38460;53.106;7.004;2023-05-14T07:43:02;14.40;99.90
52565;DHT22;38460;53.106;7.004;2023-05-14T07:45:28;14.40;99.90
52565;DHT22;38460;53.106;7.004;2023-05-14T07:47:54;14.50;99.90
52565;DHT22;38460;53.106;7.004;2023-05-14T07:50:19;14.50;99.90
52565;DHT22;38460;53.106;7.004;2023-05-14T07:52:46;14.60;99.90
52565;DHT22;38460;53.106;7.004;2023-05-14T07:55:12;14.60;99.90
52565;DHT22;38460;53.106;7.004;2023-05-14T07:57:38;14.60;99.90
52565;DHT22;38460;53.106;7.004;2023-05-14T08:00:04;14.70;99.90
52565;DHT22;38460;53.106;7.004;2023-05-14T08:02:33;14.80;99.90
52565;DHT22;38460;53.106;7.004;2023-05-14T08:04:59;14.80;99.90
52565;DHT22;38460;53.106;7.004;2023-05-14T08:07:26;14.80;99.90
52565;DHT22;38460;53.106;7.004;2023-05-14T08:09:53;14.80;99.90
52565;DHT22;38460;53.106;7.004;2023-05-14T08:12:19;14.80;99.90
52565;DHT22;38460;53.106;7.004;2023-05-14T08:14:45;14.80;99.90
52565;DHT22;38460;53.106;7.004;2023-05-14T08:17:11;14.80;99.90
52565;DHT22;38460;53.106;7.004;2023-05-14T08:19:37;14.80;99.90
52565;DHT22;38460;53.106;7.004;2023-05-14T08:22:02;14.90;99.90
52565;DHT22;38460;53.106;7.004;2023-05-14T08:24:28;14.90;99.90
52565;DHT22;38460;53.106;7.004;2023-05-14T08:26:54;14.90;99.90
52565;DHT22;38460;53.106;7.004;2023-05-14T08:29:20;14.90;99.90
52565;DHT22;38460;53.106;7.004;2023-05-14T08:31:46;14.90;99.90
52565;DHT22;38460;53.106;7.004;2023-05-14T08:34:12;15.00;99.90
52565;DHT22;38460;53.106;7.004;2023-05-14T08:36:38;15.10;99.90
52565;DHT22;38460;53.106;7.004;2023-05-14T08:39:04;15.10;99.90
52565;DHT22;38460;53.106;7.004;2023-05-14T08:41:32;15.20;99.90
52565;DHT22;38460;53.106;7.004;2023-05-14T08:44:14;15.30;99.90
52565;DHT22;38460;53.106;7.004;2023-05-14T08:46:43;15.30;99.90
52565;DHT22;38460;53.106;7.004;2023-05-14T08:52:00;15.60;99.90
52565;DHT22;38460;53.106;7.004;2023-05-14T08:54:26;15.80;99.90
52565;DHT22;38460;53.106;7.004;2023-05-14T08:56:53;15.90;99.90
52565;DHT22;38460;53.106;7.004;2023-05-14T08:59:19;16.10;99.90
52565;DHT22;38460;53.106;7.004;2023-05-14T09:01:51;16.20;99.90
52565;DHT22;38460;53.106;7.004;2023-05-14T09:04:19;16.30;99.90
52565;DHT22;38460;53.106;7.004;2023-05-14T09:06:48;16.40;99.90
52565;DHT22;38460;53.106;7.004;2023-05-14T09:09:14;16.50;99.90
52565;DHT22;38460;53.106;7.004;2023-05-14T09:11:41;16.60;99.90
52565;DHT22;38460;53.106;7.004;2023-05-14T09:14:08;16.60;99.90
52565;DHT22;38460;53.106;7.004;2023-05-14T09:16:34;16.70;99.90
52565;DHT22;38460;53.106;7.004;2023-05-14T09:19:02;16.80;99.90
52565;DHT22;38460;53.106;7.004;2023-05-14T09:21:29;16.90;99.90
52565;DHT22;38460;53.106;7.004;2023-05-14T09:23:56;17.00;99.90
52565;DHT22;38460;53.106;7.004;2023-05-14T09:26:26;17.00;99.90
52565;DHT22;38460;53.106;7.004;2023-05-14T09:28:57;17.10;99.90
52565;DHT22;38460;53.106;7.004;2023-05-14T09:31:30;17.20;99.90
52565;DHT22;38460;53.106;7.004;2023-05-14T09:33:57;17.40;99.90
52565;DHT22;38460;53.106;7.004;2023-05-14T09:36:23;17.40;99.90
52565;DHT22;38460;53.106;7.004;2023-05-14T09:38:52;17.50;99.90
52565;DHT22;38460;53.106;7.004;2023-05-14T09:41:17;17.60;99.90
52565;DHT22;38460;53.106;7.004;2023-05-14T09:43:43;17.70;99.90
52565;DHT22;38460;53.106;7.004;2023-05-14T09:46:09;17.70;99.90
52565;DHT22;38460;53.106;7.004;2023-05-14T09:48:35;17.80;99.90
52565;DHT22;38460;53.106;7.004;2023-05-14T09:51:01;17.90;99.90
52565;DHT22;38460;53.106;7.004;2023-05-14T09:53:27;17.90;99.90
52565;DHT22;38460;53.106;7.004;2023-05-14T09:55:54;18.00;99.90
52565;DHT22;38460;53.106;7.004;2023-05-14T09:58:19;18.10;99.90
52565;DHT22;38460;53.106;7.004;2023-05-14T10:00:45;18.10;99.90
52565;DHT22;38460;53.106;7.004;2023-05-14T10:03:13;18.20;99.90
52565;DHT22;38460;53.106;7.004;2023-05-14T10:05:41;18.40;99.90
52565;DHT22;38460;53.106;7.004;2023-05-14T10:08:17;18.50;99.90
52565;DHT22;38460;53.106;7.004;2023-05-14T10:10:44;18.60;99.90
52565;DHT22;38460;53.106;7.004;2023-05-14T10:13:13;18.60;99.90
52565;DHT22;38460;53.106;7.004;2023-05-14T10:15:42;18.60;99.90
52565;DHT22;38460;53.106;7.004;2023-05-14T10:18:15;18.70;99.90
52565;DHT22;38460;53.106;7.004;2023-05-14T10:20:42;18.80;99.90
52565;DHT22;38460;53.106;7.004;2023-05-14T10:23:09;18.90;99.90
52565;DHT22;38460;53.106;7.004;2023-05-14T10:25:35;18.90;99.90
52565;DHT22;38460;53.106;7.004;2023-05-14T10:28:03;19.00;99.90
52565;DHT22;38460;53.106;7.004;2023-05-14T10:30:31;19.10;99.90
52565;DHT22;38460;53.106;7.004;2023-05-14T10:33:07;19.20;99.90
52565;DHT22;38460;53.106;7.004;2023-05-14T10:36:04;19.20;99.90
52565;DHT22;38460;53.106;7.004;2023-05-14T10:38:35;19.20;99.90
52565;DHT22;38460;53.106;7.004;2023-05-14T10:41:11;19.20;99.90
52565;DHT22;38460;53.106;7.004;2023-05-14T10:43:40;19.30;99.90
52565;DHT22;38460;53.106;7.004;2023-05-14T10:46:07;19.40;99.90
52565;DHT22;38460;53.106;7.004;2023-05-14T10:48:33;19.50;99.90
52565;DHT22;38460;53.106;7.004;2023-05-14T10:51:01;19.60;99.90
52565;DHT22;38460;53.106;7.004;2023-05-14T10:53:40;19.70;99.90
52565;DHT22;38460;53.106;7.004;2023-05-14T10:56:12;19.80;99.90
52565;DHT22;38460;53.106;7.004;2023-05-14T10:58:41;19.80;99.90
52565;DHT22;38460;53.106;7.004;2023-05-14T11:01:09;19.80;99.90
52565;DHT22;38460;53.106;7.004;2023-05-14T11:03:43;19.80;99.90
52565;DHT22;38460;53.106;7.004;2023-05-14T11:06:11;19.90;99.90
52565;DHT22;38460;53.106;7.004;2023-05-14T11:08:37;20.00;99.90
52565;DHT22;38460;53.106;7.004;2023-05-14T11:11:04;20.00;99.90
52565;DHT22;38460;53.106;7.004;2023-05-14T11:13:30;20.10;99.90
52565;DHT22;38460;53.106;7.004;2023-05-14T11:16:00;20.10;99.90
52565;DHT22;38460;53.106;7.004;2023-05-14T11:18:30;20.10;99.90
52565;DHT22;38460;53.106;7.004;2023-05-14T11:21:01;20.20;99.90
52565;DHT22;38460;53.106;7.004;2023-05-14T11:23:27;20.20;99.90
52565;DHT22;38460;53.106;7.004;2023-05-14T11:25:55;20.20;99.90
52565;DHT22;38460;53.106;7.004;2023-05-14T11:28:21;20.20;99.90
52565;DHT22;38460;53.106;7.004;2023-05-14T11:30:52;20.30;99.90
52565;DHT22;38460;53.106;7.004;2023-05-14T11:33:19;20.40;99.90
52565;DHT22;38460;53.106;7.004;2023-05-14T11:35:45;20.50;99.90
52565;DHT22;38460;53.106;7.004;2023-05-14T11:38:15;20.50;99.90
52565;DHT22;38460;53.106;7.004;2023-05-14T11:40:49;20.60;99.90
52565;DHT22;38460;53.106;7.004;2023-05-14T11:43:16;20.70;99.60
52565;DHT22;38460;53.106;7.004;2023-05-14T11:45:42;20.70;98.90
52565;DHT22;38460;53.106;7.004;2023-05-14T11:48:11;20.70;97.50
52565;DHT22;38460;53.106;7.004;2023-05-14T11:50:39;20.70;97.50
52565;DHT22;38460;53.106;7.004;2023-05-14T11:53:05;20.80;98.40
52565;DHT22;38460;53.106;7.004;2023-05-14T11:55:34;20.90;98.60
52565;DHT22;38460;53.106;7.004;2023-05-14T11:58:00;21.00;99.30
52565;DHT22;38460;53.106;7.004;2023-05-14T12:00:26;21.10;99.60
52565;DHT22;38460;53.106;7.004;2023-05-14T12:02:53;21.20;99.00
52565;DHT22;38460;53.106;7.004;2023-05-14T12:05:19;21.20;98.80
52565;DHT22;38460;53.106;7.004;2023-05-14T12:07:46;21.30;98.50
52565;DHT22;38460;53.106;7.004;2023-05-14T12:10:12;21.40;98.70
52565;DHT22;38460;53.106;7.004;2023-05-14T12:12:38;21.50;98.60
52565;DHT22;38460;53.106;7.004;2023-05-14T12:15:11;21.50;98.20
52565;DHT22;38460;53.106;7.004;2023-05-14T12:17:41;21.60;97.10
52565;DHT22;38460;53.106;7.004;2023-05-14T12:20:08;21.70;97.50
52565;DHT22;38460;53.106;7.004;2023-05-14T12:22:37;21.70;97.30
52565;DHT22;38460;53.106;7.004;2023-05-14T12:25:08;21.70;96.80
52565;DHT22;38460;53.106;7.004;2023-05-14T12:27:36;21.70;96.30
52565;DHT22;38460;53.106;7.004;2023-05-14T12:30:04;21.70;96.00
52565;DHT22;38460;53.106;7.004;2023-05-14T12:32:33;21.70;95.80
52565;DHT22;38460;53.106;7.004;2023-05-14T12:35:00;21.70;96.10
52565;DHT22;38460;53.106;7.004;2023-05-14T12:37:26;21.80;95.90
52565;DHT22;38460;53.106;7.004;2023-05-14T12:39:52;21.80;96.10
52565;DHT22;38460;53.106;7.004;2023-05-14T12:42:17;21.90;96.10
52565;DHT22;38460;53.106;7.004;2023-05-14T12:44:43;21.90;96.00
52565;DHT22;38460;53.106;7.004;2023-05-14T12:47:09;22.00;96.20
52565;DHT22;38460;53.106;7.004;2023-05-14T12:49:35;21.90;94.70
52565;DHT22;38460;53.106;7.004;2023-05-14T12:52:01;21.90;95.10
52565;DHT22;38460;53.106;7.004;2023-05-14T12:54:26;22.00;95.20
52565;DHT22;38460;53.106;7.004;2023-05-14T12:56:52;22.10;95.50
52565;DHT22;38460;53.106;7.004;2023-05-14T12:59:18;22.20;95.30
52565;DHT22;38460;53.106;7.004;2023-05-14T13:01:44;22.30;95.20
52565;DHT22;38460;53.106;7.004;2023-05-14T13:04:10;22.20;95.20
52565;DHT22;38460;53.106;7.004;2023-05-14T13:06:37;22.10;95.00
52565;DHT22;38460;53.106;7.004;2023-05-14T13:09:04;22.10;95.20
52565;DHT22;38460;53.106;7.004;2023-05-14T13:11:30;22.10;95.20
52565;DHT22;38460;53.106;7.004;2023-05-14T13:14:00;22.10;94.90
52565;DHT22;38460;53.106;7.004;2023-05-14T13:16:27;22.10;94.30
52565;DHT22;38460;53.106;7.004;2023-05-14T13:18:52;22.10;94.00
52565;DHT22;38460;53.106;7.004;2023-05-14T13:21:18;22.00;94.00
52565;DHT22;38460;53.106;7.004;2023-05-14T13:23:45;22.00;94.80
52565;DHT22;38460;53.106;7.004;2023-05-14T13:26:10;21.90;94.50
52565;DHT22;38460;53.106;7.004;2023-05-14T13:28:36;21.80;94.50
52565;DHT22;38460;53.106;7.004;2023-05-14T13:31:12;21.80;94.10
52565;DHT22;38460;53.106;7.004;2023-05-14T13:33:42;21.80;93.80
52565;DHT22;38460;53.106;7.004;2023-05-14T13:36:09;21.90;93.00
52565;DHT22;38460;53.106;7.004;2023-05-14T13:38:36;21.90;93.00
52565;DHT22;38460;53.106;7.004;2023-05-14T13:41:02;21.90;92.70
52565;DHT22;38460;53.106;7.004;2023-05-14T13:43:33;21.80;92.00
52565;DHT22;38460;53.106;7.004;2023-05-14T13:45:59;21.90;92.60
52565;DHT22;38460;53.106;7.004;2023-05-14T13:48:26;22.00;91.90
52565;DHT22;38460;53.106;7.004;2023-05-14T13:50:52;21.90;90.70
52565;DHT22;38460;53.106;7.004;2023-05-14T13:53:19;21.90;90.90
52565;DHT22;38460;53.106;7.004;2023-05-14T13:55:45;22.00;91.50
52565;DHT22;38460;53.106;7.004;2023-05-14T13:58:11;22.10;91.60
52565;DHT22;38460;53.106;7.004;2023-05-14T14:00:36;22.20;90.80
52565;DHT22;38460;53.106;7.004;2023-05-14T14:03:03;22.10;90.60
52565;DHT22;38460;53.106;7.004;2023-05-14T14:05:29;22.10;91.10
52565;DHT22;38460;53.106;7.004;2023-05-14T14:07:55;22.20;91.20
52565;DHT22;38460;53.106;7.004;2023-05-14T14:10:21;22.10;91.30
52565;DHT22;38460;53.106;7.004;2023-05-14T14:12:47;21.90;90.50
52565;DHT22;38460;53.106;7.004;2023-05-14T14:15:14;22.00;91.30
52565;DHT22;38460;53.106;7.004;2023-05-14T14:17:39;22.00;91.40
52565;DHT22;38460;53.106;7.004;2023-05-14T14:20:07;22.10;91.40
52565;DHT22;38460;53.106;7.004;2023-05-14T14:22:34;22.10;91.40
52565;DHT22;38460;53.106;7.004;2023-05-14T14:24:59;22.10;90.80
52565;DHT22;38460;53.106;7.004;2023-05-14T14:27:26;22.00;90.70
52565;DHT22;38460;53.106;7.004;2023-05-14T14:29:52;22.00;91.50
52565;DHT22;38460;53.106;7.004;2023-05-14T14:32:17;22.00;90.90
52565;DHT22;38460;53.106;7.004;2023-05-14T14:34:43;22.00;90.70
52565;DHT22;38460;53.106;7.004;2023-05-14T14:37:09;22.00;90.60
52565;DHT22;38460;53.106;7.004;2023-05-14T14:39:34;22.00;91.00
52565;DHT22;38460;53.106;7.004;2023-05-14T14:42:00;22.10;90.70
52565;DHT22;38460;53.106;7.004;2023-05-14T14:44:26;22.10;90.40
52565;DHT22;38460;53.106;7.004;2023-05-14T14:46:52;22.10;90.80
52565;DHT22;38460;53.106;7.004;2023-05-14T14:49:17;22.20;90.80
52565;DHT22;38460;53.106;7.004;2023-05-14T14:51:43;22.20;90.90
52565;DHT22;38460;53.106;7.004;2023-05-14T14:54:09;22.20;91.30
52565;DHT22;38460;53.106;7.004;2023-05-14T14:56:34;22.20;90.40
52565;DHT22;38460;53.106;7.004;2023-05-14T14:59:00;22.20;90.70
52565;DHT22;38460;53.106;7.004;2023-05-14T15:01:26;22.20;91.10
52565;DHT22;38460;53.106;7.004;2023-05-14T15:03:52;22.20;91.20
52565;DHT22;38460;53.106;7.004;2023-05-14T15:06:17;22.10;90.80
52565;DHT22;38460;53.106;7.004;2023-05-14T15:08:43;22.00;90.50
52565;DHT22;38460;53.106;7.004;2023-05-14T15:11:09;22.00;90.90
52565;DHT22;38460;53.106;7.004;2023-05-14T15:13:35;22.10;91.40
52565;DHT22;38460;53.106;7.004;2023-05-14T15:16:00;22.00;90.30
52565;DHT22;38460;53.106;7.004;2023-05-14T15:18:26;22.00;89.50
52565;DHT22;38460;53.106;7.004;2023-05-14T15:20:52;22.10;89.60
52565;DHT22;38460;53.106;7.004;2023-05-14T15:23:18;21.90;87.50
52565;DHT22;38460;53.106;7.004;2023-05-14T15:25:43;21.90;89.70
52565;DHT22;38460;53.106;7.004;2023-05-14T15:28:09;21.90;90.00
52565;DHT22;38460;53.106;7.004;2023-05-14T15:30:35;21.80;89.70
52565;DHT22;38460;53.106;7.004;2023-05-14T15:33:01;21.80;89.70
52565;DHT22;38460;53.106;7.004;2023-05-14T15:35:27;21.80;89.20
52565;DHT22;38460;53.106;7.004;2023-05-14T15:37:54;21.80;89.70